Latest Weather Observations for Coolangatta

IDN60801

Issued at 7:15 pm EDT Sunday 1 March 2015 (issued every 30 minutes, with the page automatically refreshed every 10 minutes)

About weather observations | Map of weather stations | Latest weather observations for NSW | Other Formats
Station Details ID: 040717 Name: COOLANGATTA Lat: -28.17 Lon: 153.51 Height: 4.0 m
Data from the previous 72 hours. | See also: Recent months at Coolangatta
Date/Time
EDT
Temp
°C
App
Temp
°C
Dew
Point
Rel
Hum
%
Delta-T
°C
Wind Press
QNH
hPa
Press
MSL
hPa
Rain
since 9 am
mm
Dir
 
Spd
km/h
Gust
km/h
Spd
kts
Gust
kts
01/07:00pm 25.9 26.8 20.9 74 3.3 N 17 20 9 11 1008.7 1008.6 0.0
01/06:30pm 26.4 27.2 21.4 74 3.3 N 19 24 10 13 1008.4 1008.3 0.0
01/06:00pm 27.1 28.0 21.6 72 3.7 NNE 19 24 10 13 1008.3 1008.2 0.0
01/05:30pm 27.0 27.5 21.1 70 3.9 N 20 24 11 13 1008.1 1008.0 0.0
01/05:00pm 27.2 27.7 21.2 69 4.0 NNE 20 26 11 14 1007.9 1007.8 0.0
01/04:30pm 27.1 27.1 20.9 69 4.1 NNE 22 28 12 15 1008.0 1007.9 0.0
01/04:00pm 27.5 28.0 21.1 68 4.3 NNE 20 26 11 14 1008.3 1008.2 0.0
01/03:30pm 27.9 28.5 21.4 67 4.3 NNE 20 26 11 14 1008.5 1008.4 0.0
01/03:00pm 27.9 28.4 21.2 67 4.5 NNE 20 24 11 13 1008.9 1008.8 0.0
01/02:30pm 27.7 28.3 21.3 68 4.3 NNE 20 26 11 14 1009.0 1008.9 0.0
01/02:00pm 28.0 28.8 21.8 69 4.2 NNE 20 28 11 15 1009.3 1009.2 0.0
01/01:30pm 28.1 29.0 21.9 69 4.2 NNE 20 24 11 13 1009.6 1009.5 0.0
01/01:00pm 28.1 29.0 21.6 68 4.4 NNE 19 26 10 14 1009.9 1009.8 0.0
01/12:30pm 27.6 28.1 20.9 67 4.4 NNE 19 22 10 12 1010.3 1010.2 0.0
01/12:00pm 27.4 28.0 21.0 68 4.2 NNE 19 22 10 12 1010.7 1010.6 0.0
01/11:30am 27.4 28.6 21.4 70 4.0 NNE 17 22 9 12 1011.1 1011.0 0.0
01/11:00am 27.8 29.2 21.8 70 4.0 N 17 20 9 11 1011.2 1011.1 0.0
01/10:30am 27.1 28.0 20.9 69 4.1 N 17 20 9 11 1011.2 1011.1 0.0
01/10:00am 26.7 27.7 20.3 68 4.2 NNE 15 19 8 10 1011.2 1011.1 0.2
01/09:30am 26.3 27.9 19.9 68 4.2 NNW 11 15 6 8 1011.2 1011.1 0.2
01/09:00am 25.6 28.4 20.8 75 3.2 NW 7 11 4 6 1011.1 1011.0 0.2
01/08:30am 23.6 27.8 21.7 89 1.3 SSW 2 6 1 3 1010.9 1010.8 0.2
01/08:00am 22.4 24.9 21.0 92 0.9 WSW 9 9 5 5 1010.8 1010.7 0.2
01/07:30am 21.8 24.6 20.8 94 0.6 WSW 7 11 4 6 1010.7 1010.6 0.2
01/07:00am 21.7 25.7 20.5 93 0.8 CALM 0 0 0 0 1010.4 1010.3 0.2
01/06:30am 21.8 25.0 20.6 93 0.8 SSW 4 7 2 4 1010.3 1010.2 0.2
01/06:00am 22.1 25.2 21.1 94 0.7 WSW 6 9 3 5 1010.2 1010.1 0.2
01/05:30am 22.2 26.0 21.0 93 0.8 SW 2 9 1 5 1009.8 1009.7 0.2
01/05:00am 22.1 25.1 20.9 93 0.8 WSW 6 9 3 5 1009.7 1009.6 0.2
01/04:30am 22.4 26.2 21.0 92 0.9 SW 2 7 1 4 1009.8 1009.7 0.2
01/04:00am 22.5 25.4 21.1 92 0.9 WSW 7 9 4 5 1009.9 1009.8 0.2
01/03:30am 22.5 25.0 21.1 92 0.9 SW 9 13 5 7 1010.0 1009.9 0.2
01/03:00am 22.4 25.8 20.9 91 1.0 WSW 4 7 2 4 1010.1 1010.0 0.2
01/02:30am 22.6 26.0 20.9 90 1.1 W 4 9 2 5 1010.4 1010.3 0.2
01/02:00am 22.6 26.4 20.9 90 1.1 SSW 2 7 1 4 1010.7 1010.6 0.2
01/01:30am 22.6 26.0 20.9 90 1.1 SW 4 9 2 5 1011.1 1011.0 0.2
01/01:00am 22.7 25.8 21.0 90 1.1 SW 6 9 3 5 1011.3 1011.2 0.2
01/12:30am 22.4 24.9 21.0 92 0.9 WSW 9 13 5 7 1011.6 1011.5 0.2
01/12:00am 22.4 25.1 20.7 90 1.1 W 7 11 4 6 1011.6 1011.5 0.2
 
Date/Time
EDT
Temp
°C
App
Temp
°C
Dew
Point
Rel
Hum
%
Delta-T
°C
Wind Press
QNH
hPa
Press
MSL
hPa
Rain
since 9 am
mm
Dir
 
Spd
km/h
Gust
km/h
Spd
kts
Gust
kts
28/11:30pm 22.9 25.7 20.4 86 1.6 W 6 11 3 6 1011.7 1011.6 0.2
28/11:00pm 23.6 25.7 20.1 81 2.3 NNW 9 15 5 8 1011.9 1011.8 0.2
28/10:30pm 25.1 26.4 20.1 74 3.2 NE 13 17 7 9 1011.8 1011.7 0.2
28/10:00pm 25.2 26.5 20.2 74 3.3 NE 13 17 7 9 1011.7 1011.6 0.2
28/09:30pm 25.3 26.0 19.7 71 3.6 NE 15 20 8 11 1011.7 1011.6 0.2
28/09:00pm 25.3 26.5 19.9 72 3.5 NE 13 19 7 10 1011.4 1011.3 0.2
28/08:30pm 25.3 26.0 19.7 71 3.6 NE 15 20 8 11 1011.1 1011.0 0.2
28/08:00pm 25.4 26.3 20.0 72 3.5 NE 15 20 8 11 1010.7 1010.6 0.2
28/07:30pm 25.5 26.4 20.1 72 3.5 NNE 15 19 8 10 1010.4 1010.3 0.2
28/07:00pm 25.6 25.9 19.7 70 3.8 NE 17 22 9 12 1009.9 1009.8 0.2
28/06:30pm 26.1 27.0 20.0 69 4.0 NE 15 20 8 11 1009.9 1009.8 0.2
28/06:00pm 25.9 26.2 19.5 68 4.1 NE 17 24 9 13 1009.7 1009.6 0.2
28/05:30pm 26.8 27.2 20.6 69 4.1 NE 19 24 10 13 1009.6 1009.5 0.2
28/05:00pm 26.8 27.0 20.6 69 4.1 NE 20 26 11 14 1009.7 1009.6 0.2
28/04:30pm 27.3 28.1 21.3 69 4.0 NE 19 22 10 12 1009.6 1009.5 0.2
28/04:00pm 26.7 27.7 21.0 71 3.8 NE 17 24 9 13 1009.8 1009.7 0.2
28/03:30pm 26.7 27.2 21.2 72 3.6 ENE 20 24 11 13 1009.7 1009.6 0.2
28/03:00pm 27.1 27.7 21.4 71 3.8 NE 20 24 11 13 1009.9 1009.8 0.2
28/02:30pm 27.2 27.7 21.2 69 4.0 NE 20 24 11 13 1010.1 1010.0 0.2
28/02:00pm 27.1 27.9 21.8 73 3.5 ENE 20 26 11 14 1010.3 1010.2 0.2
28/01:30pm 26.9 27.6 21.6 72 3.5 ENE 20 26 11 14 1010.8 1010.7 0.2
28/01:00pm 27.2 28.1 21.9 73 3.6 ENE 20 26 11 14 1010.9 1010.8 0.2
28/12:30pm 27.1 28.3 21.4 71 3.8 ENE 17 22 9 12 1011.1 1011.0 0.2
28/12:00pm 26.8 27.7 20.9 70 3.9 NE 17 22 9 12 1011.3 1011.2 0.2
28/11:30am 27.0 28.6 20.8 69 4.1 ENE 13 17 7 9 1011.4 1011.3 0.2
28/11:00am 26.4 27.3 20.0 68 4.2 NE 15 20 8 11 1011.7 1011.6 0.2
28/10:30am 26.3 27.6 20.2 69 4.0 NNE 13 17 7 9 1011.7 1011.6 0.2
28/10:00am 26.4 28.6 20.3 69 4.0 NNE 9 13 5 7 1011.6 1011.5 45.4
28/09:30am 25.7 29.2 20.3 72 3.5 W 2 6 1 3 1011.5 1011.4 45.4
28/09:00am 24.7 28.3 20.6 78 2.7 SSW 2 6 1 3 1011.3 1011.2 45.4
28/08:30am 23.2 26.0 20.9 87 1.5 SSW 7 9 4 5 1011.1 1011.0 45.4
28/08:00am 22.3 25.1 20.9 92 0.9 SW 7 13 4 7 1010.8 1010.7 45.4
28/07:30am 21.7 24.6 21.0 96 0.5 SW 7 9 4 5 1010.7 1010.6 45.4
28/07:00am 21.0 23.5 20.3 96 0.5 SW 7 11 4 6 1010.4 1010.3 45.4
28/06:30am 21.3 23.3 20.8 97 0.3 WSW 11 13 6 7 1010.0 1009.9 45.4
28/06:00am 21.1 24.6 20.4 96 0.5 NW 2 9 1 5 1010.0 1009.9 45.4
28/05:30am 21.2 24.0 20.4 95 0.5 WNW 6 7 3 4 1010.1 1010.0 45.4
28/05:00am 21.3 25.3 20.5 95 0.5 CALM 0 0 0 0 1009.8 1009.7 45.4
28/04:30am 21.3 24.9 20.5 95 0.5 S 2 6 1 3 1009.6 1009.5 45.4
28/04:00am 21.5 24.3 20.8 96 0.5 SW 7 11 4 6 1009.8 1009.7 45.4
28/03:30am 21.5 23.9 20.8 96 0.5 WSW 9 13 5 7 1010.0 1009.9 45.4
28/03:25am 21.6 23.7 20.9 96 0.5 WSW 11 13 6 7 1010.0 1009.9 45.4
28/03:00am 21.7 25.9 21.0 96 0.5 CALM 0 0 0 0 1010.2 1010.1 45.0
28/02:50am 21.8 24.7 21.0 95 0.5 WNW 7 13 4 7 1010.2 1010.1 44.6
28/02:30am 21.8 24.9 21.0 95 0.5 W 6 15 3 8 1010.4 1010.3 43.2
28/02:00am 21.6 23.7 20.9 96 0.5 WNW 11 19 6 10 1010.5 1010.4 40.6
28/01:50am 21.6 24.0 20.9 96 0.5 S 9 15 5 8 1010.6 1010.5 38.8
28/01:48am 21.5 23.9 20.8 96 0.5 S 9 17 5 9 1010.6 1010.5 38.4
28/01:38am 21.6 22.9 20.9 96 0.5 SW 15 20 8 11 1010.5 1010.4 33.2
28/01:30am 21.6 22.9 20.8 95 0.5 WSW 15 20 8 11 1010.4 1010.3 29.4
28/01:25am 21.6 23.2 20.8 95 0.5 WSW 13 17 7 9 1010.4 1010.3 27.2
28/01:00am 22.0 23.7 21.0 94 0.7 WNW 13 20 7 11 1010.4 1010.3 23.4
28/12:30am 22.4 25.1 21.4 94 0.7 WSW 9 13 5 7 1010.5 1010.4 10.6
28/12:11am 22.3 23.9 20.8 91 1.0 WSW 13 17 7 9 1010.6 1010.5 3.4
28/12:00am 22.9 25.2 21.4 91 1.0 W 11 17 6 9 1010.4 1010.3 2.0
 
Date/Time
EDT
Temp
°C
App
Temp
°C
Dew
Point
Rel
Hum
%
Delta-T
°C
Wind Press
QNH
hPa
Press
MSL
hPa
Rain
since 9 am
mm
Dir
 
Spd
km/h
Gust
km/h
Spd
kts
Gust
kts
27/11:39pm 24.0 25.9 21.3 85 1.8 N 13 20 7 11 1010.2 1010.1 0.2
27/11:30pm 24.8 27.2 21.5 82 2.2 N 11 17 6 9 1010.2 1010.1 0.0
27/11:00pm 25.4 25.8 20.6 75 3.1 NE 19 26 10 14 1010.0 1009.9 0.0
27/10:30pm 25.4 26.8 20.4 74 3.3 NNE 13 17 7 9 1010.2 1010.1 0.0
27/10:00pm 25.5 26.5 20.3 73 3.4 NNE 15 19 8 10 1010.3 1010.2 0.0
27/09:30pm 25.7 26.9 19.8 70 3.8 NE 13 17 7 9 1010.3 1010.2 0.0
27/09:00pm 25.7 26.0 19.6 69 3.9 NE 17 20 9 11 1009.8 1009.7 0.0
27/08:30pm 25.6 26.2 19.5 69 3.9 NE 15 20 8 11 1009.4 1009.3 0.0
27/08:00pm 25.5 26.5 19.4 69 3.9 NE 13 17 7 9 1009.2 1009.1 0.0
27/07:30pm 25.5 26.5 19.4 69 3.9 NE 13 17 7 9 1008.8 1008.7 0.0
27/07:00pm 25.6 25.9 19.7 70 3.8 NE 17 20 9 11 1008.3 1008.2 0.0
27/06:30pm 25.9 26.7 19.8 69 4.0 NE 15 19 8 10 1008.3 1008.2 0.0
27/06:00pm 26.1 26.7 20.2 70 3.9 NNE 17 22 9 12 1007.9 1007.8 0.0
27/05:30pm 26.9 27.2 20.3 67 4.3 NE 19 22 10 12 1007.4 1007.3 0.0
27/05:00pm 27.3 27.8 20.1 64 4.7 NNE 17 24 9 13 1007.3 1007.2 0.0
27/04:30pm 27.2 27.6 19.8 64 4.8 NNE 17 22 9 12 1007.3 1007.2 0.0
27/04:00pm 27.3 27.8 20.9 68 4.2 NNE 19 22 10 12 1007.4 1007.3 0.0
27/03:30pm 26.3 27.0 20.4 70 3.9 NE 17 22 9 12 1007.4 1007.3 0.0
27/03:00pm 26.5 26.0 19.1 64 4.8 NE 20 24 11 13 1007.3 1007.2 0.0
27/02:30pm 28.1 28.6 21.1 65 4.6 NNE 20 26 11 14 1007.6 1007.5 0.0
27/02:00pm 27.3 27.2 19.9 64 4.8 NNE 20 24 11 13 1008.0 1007.9 0.0
27/01:30pm 26.8 26.4 19.4 64 4.8 NNE 20 26 11 14 1008.2 1008.1 0.0
27/01:00pm 27.8 28.3 21.1 67 4.5 NNE 20 28 11 15 1008.3 1008.2 0.0
27/12:30pm 27.2 27.1 20.0 64 4.7 NNE 20 24 11 13 1008.7 1008.6 0.0
27/12:00pm 27.3 27.5 20.6 67 4.4 NNE 20 26 11 14 1009.1 1009.0 0.0
27/11:30am 27.1 27.2 20.4 66 4.4 N 20 26 11 14 1009.4 1009.3 0.0
27/11:00am 26.6 27.3 20.4 69 4.1 N 17 24 9 13 1009.5 1009.4 0.0
27/10:30am 26.0 27.9 20.6 72 3.5 NW 11 17 6 9 1009.5 1009.4 0.0
27/10:00am 25.1 26.6 20.6 76 2.9 WNW 13 17 7 9 1009.6 1009.5 0.0
27/09:30am 24.6 27.0 20.9 80 2.4 NW 9 13 5 7 1009.1 1009.0 0.0
27/09:00am 24.0 26.0 20.7 82 2.2 NNW 11 15 6 8 1008.8 1008.7 0.0
27/08:30am 23.5 25.7 21.2 87 1.5 NW 11 15 6 8 1008.9 1008.8 0.0
27/08:00am 22.7 25.4 20.6 88 1.4 NW 7 9 4 5 1008.7 1008.6 0.0
27/07:30am 22.2 25.0 20.5 90 1.1 W 6 9 3 5 1009.4 1009.3 0.0
27/07:00am 22.0 23.9 20.5 91 1.0 WSW 11 15 6 8 1009.6 1009.5 0.0
27/06:30am 21.8 24.4 20.4 92 0.9 WSW 7 9 4 5 1009.1 1009.0 0.0
27/06:00am 21.9 25.0 20.2 90 1.1 W 4 7 2 4 1008.6 1008.5 0.0
27/05:30am 21.9 24.7 20.4 91 1.0 W 6 9 3 5 1008.5 1008.4 0.0
27/05:00am 22.2 24.7 20.3 89 1.2 S 7 11 4 6 1008.2 1008.1 0.0
27/04:30am 22.3 23.8 20.6 90 1.1 WSW 13 17 7 9 1008.5 1008.4 0.0
27/04:00am 22.0 25.1 20.3 90 1.1 WSW 4 9 2 5 1007.4 1007.3 0.0
27/03:30am 22.4 25.2 20.5 89 1.2 SSW 6 9 3 5 1007.5 1007.4 0.0
27/03:00am 22.6 25.5 20.7 89 1.2 SW 6 7 3 4 1008.1 1008.0 0.0
27/02:30am 22.6 25.3 20.7 89 1.2 WSW 7 9 4 5 1008.1 1008.0 0.0
27/02:00am 22.7 25.5 20.4 87 1.5 SW 6 7 3 4 1008.3 1008.2 0.0
27/01:30am 22.7 24.7 20.0 85 1.7 W 9 11 5 6 1008.7 1008.6 0.0
27/01:00am 23.0 25.2 20.3 85 1.7 W 9 11 5 6 1008.8 1008.7 0.0
27/12:30am 23.6 27.1 20.3 82 2.1 SW 2 6 1 3 1009.0 1008.9 0.0
27/12:00am 24.9 26.8 19.7 73 3.4 ENE 9 13 5 7 1009.1 1009.0 0.0
 
Date/Time
EDT
Temp
°C
App
Temp
°C
Dew
Point
Rel
Hum
%
Delta-T
°C
Wind Press
QNH
hPa
Press
MSL
hPa
Rain
since 9 am
mm
Dir
 
Spd
km/h
Gust
km/h
Spd
kts
Gust
kts
26/11:30pm 25.0 26.3 19.4 71 3.6 ENE 11 17 6 9 1009.3 1009.2 0.0
26/11:00pm 25.1 26.0 19.2 70 3.8 ENE 13 17 7 9 1009.3 1009.2 0.0
26/10:30pm 25.1 26.5 19.5 71 3.6 ENE 11 13 6 7 1009.4 1009.3 0.0
26/10:00pm 25.0 26.0 19.4 71 3.6 ENE 13 17 7 9 1009.3 1009.2 0.0
26/09:30pm 25.0 26.3 19.4 71 3.6 ENE 11 13 6 7 1009.2 1009.1 0.0
26/09:00pm 24.9 25.9 19.5 72 3.5 ENE 13 17 7 9 1009.0 1008.9 0.0
26/08:30pm 24.9 26.7 19.5 72 3.5 ENE 9 15 5 8 1008.9 1008.8 0.0

Other Formats:

Comma delimited format used in spreadsheet applications
http://www.bom.gov.au/fwo/IDN60801/IDN60801.94592.axf

JavaScript Object Notation format (JSON) in row-major order
http://www.bom.gov.au/fwo/IDN60801/IDN60801.94592.json